Time;durP1;ratioP1;P1;durP2;ratioP2;P2;SDS_P1;SDS_P2;PMS_P1;PMS_P2;Temp;Humidity;BMP_temperature;BMP_pressure;BME280_temperature;BME280_humidity;BME280_pressure;Samples;Min_cycle;Max_cycle;Signal;HPM_P1;HPM_P2
2022/08/06 00:00:49;;;;;;;25.97;11.20;;;;;;;18.69;100.00;98677.30;2234800;79;21005;-60
2022/08/06 00:03:49;;;;;;;22.37;10.48;;;;;;;18.66;100.00;98674.47;2223724;79;20989;-60
2022/08/06 00:06:50;;;;;;;21.57;10.18;;;;;;;18.59;100.00;98670.73;2240317;79;20982;-60
2022/08/06 00:09:50;;;;;;;22.17;10.75;;;;;;;18.59;100.00;98670.73;2245667;79;20984;-59
2022/08/06 00:12:51;;;;;;;24.10;10.80;;;;;;;18.61;100.00;98671.91;2232345;79;21024;-59
2022/08/06 00:15:52;;;;;;;28.25;11.80;;;;;;;18.60;100.00;98668.41;2243760;79;21566;-62
2022/08/06 00:18:52;;;;;;;24.45;11.28;;;;;;;18.57;100.00;98670.53;2232179;79;21005;-60
2022/08/06 00:21:54;;;;;;;25.40;11.80;;;;;;;18.57;100.00;98669.20;2233349;79;20957;-59
2022/08/06 00:24:56;;;;;;;22.00;10.35;;;;;;;18.56;100.00;98675.02;2233727;79;20997;-61
2022/08/06 00:27:57;;;;;;;23.32;10.90;;;;;;;18.54;100.00;98671.66;2229447;79;21573;-59
2022/08/06 00:30:59;;;;;;;24.35;11.05;;;;;;;18.51;100.00;98674.62;2230140;79;21046;-64
2022/08/06 00:34:02;;;;;;;22.73;11.15;;;;;;;18.48;100.00;98664.30;2239047;79;20981;-63
2022/08/06 00:37:03;;;;;;;22.45;11.12;;;;;;;18.47;100.00;98670.08;2211822;79;21005;-61
2022/08/06 00:40:05;;;;;;;26.05;11.35;;;;;;;18.44;100.00;98666.90;2242934;79;21057;-59
2022/08/06 00:43:06;;;;;;;22.77;10.40;;;;;;;18.47;100.00;98667.92;2232974;79;21071;-59
2022/08/06 00:46:08;;;;;;;22.87;10.32;;;;;;;18.46;100.00;98672.88;2240208;79;20969;-59
2022/08/06 00:49:10;;;;;;;24.77;10.70;;;;;;;18.55;100.00;98676.47;2233314;79;21076;-60
2022/08/06 00:52:11;;;;;;;23.90;10.10;;;;;;;18.55;100.00;98681.31;2224760;79;21039;-61
2022/08/06 00:55:13;;;;;;;25.08;10.50;;;;;;;18.50;100.00;98684.89;2231702;79;20982;-58
2022/08/06 00:58:14;;;;;;;26.90;10.75;;;;;;;18.51;100.00;98683.91;2231096;79;21594;-60
2022/08/06 01:01:16;;;;;;;23.67;11.53;;;;;;;18.51;100.00;98685.23;2232944;79;20990;-59
2022/08/06 01:04:18;;;;;;;23.18;11.10;;;;;;;18.56;100.00;98686.97;2236261;79;21542;-63
2022/08/06 01:07:19;;;;;;;24.55;10.80;;;;;;;18.56;100.00;98681.66;2248382;79;21000;-62
2022/08/06 01:10:22;;;;;;;26.50;11.33;;;;;;;18.56;100.00;98680.33;2231929;79;21100;-65
2022/08/06 01:13:23;;;;;;;22.32;10.70;;;;;;;18.53;100.00;98686.77;2235904;79;20992;-60
2022/08/06 01:16:25;;;;;;;23.95;11.40;;;;;;;18.55;100.00;98692.41;2228802;79;21537;-59
2022/08/06 01:19:26;;;;;;;24.85;11.60;;;;;;;18.55;100.00;98695.06;2231327;79;21067;-59
2022/08/06 01:22:27;;;;;;;24.32;11.35;;;;;;;18.53;100.00;98689.90;2230698;79;21508;-68
2022/08/06 01:25:29;;;;;;;23.25;10.72;;;;;;;18.48;100.00;98694.83;2226168;79;20966;-66
2022/08/06 01:28:31;;;;;;;26.50;10.98;;;;;;;18.48;100.00;98691.67;2242124;79;21104;-64
2022/08/06 01:31:32;;;;;;;24.60;11.35;;;;;;;18.52;100.00;98689.08;2227216;79;21091;-65
2022/08/06 01:34:34;;;;;;;23.50;10.10;;;;;;;18.37;100.00;98707.80;2232991;79;21014;-59
2022/08/06 01:37:35;;;;;;;22.90;10.10;;;;;;;17.63;100.00;98730.09;2243095;79;21124;-63
2022/08/06 01:40:37;;;;;;;24.82;11.28;;;;;;;17.37;100.00;98733.81;2242511;79;21049;-59
2022/08/06 01:43:38;;;;;;;29.15;11.75;;;;;;;17.30;100.00;98722.09;2232007;79;21000;-59
2022/08/06 01:46:40;;;;;;;24.80;12.10;;;;;;;17.33;100.00;98735.56;2233726;78;21059;-58
2022/08/06 01:49:41;;;;;;;24.63;12.00;;;;;;;17.46;100.00;98721.03;2240787;79;21008;-60
2022/08/06 01:52:43;;;;;;;23.67;11.85;;;;;;;17.61;100.00;98742.67;2239504;79;21124;-58
2022/08/06 01:55:45;;;;;;;;;;;;;;;17.71;100.00;98730.70;2235175;79;21032;-60
2022/08/06 01:58:46;;;;;;;24.73;12.10;;;;;;;17.77;100.00;98736.79;2237335;79;20094;-58
2022/08/06 02:01:48;;;;;;;23.55;11.48;;;;;;;17.77;100.00;98736.79;2226033;79;21044;-58
2022/08/06 02:04:50;;;;;;;25.08;11.88;;;;;;;17.88;100.00;98719.03;2233013;79;21503;-58
2022/08/06 02:07:51;;;;;;;24.95;11.55;;;;;;;18.03;100.00;98719.44;2231296;79;21022;-58
2022/08/06 02:10:53;;;;;;;24.77;12.00;;;;;;;18.17;100.00;98724.28;2238884;79;21043;-58
2022/08/06 02:13:54;;;;;;;25.68;11.70;;;;;;;18.19;100.00;98717.03;2234998;79;20995;-68
2022/08/06 02:16:55;;;;;;;23.57;11.53;;;;;;;18.18;100.00;98728.63;2230048;79;20999;-60
2022/08/06 02:20:00;;;;;;;24.98;12.00;;;;;;;18.21;100.00;98717.70;2235035;79;20985;-65
2022/08/06 02:23:01;;;;;;;26.70;11.35;;;;;;;18.23;100.00;98716.23;2214236;79;21036;-66
2022/08/06 02:26:02;;;;;;;23.70;11.70;;;;;;;18.21;100.00;98707.59;2235290;79;21020;-67
2022/08/06 02:29:04;;;;;;;24.60;11.22;;;;;;;18.17;100.00;98705.23;2237291;79;21033;-62
2022/08/06 02:32:05;;;;;;;26.90;11.10;;;;;;;18.10;100.00;98705.47;2231275;79;21016;-65
2022/08/06 02:35:09;;;;;;;25.55;10.95;;;;;;;18.06;100.00;98715.16;2225997;79;21032;-61
2022/08/06 02:38:11;;;;;;;25.88;11.63;;;;;;;18.12;100.00;98714.61;2238698;79;21634;-65
2022/08/06 02:41:12;;;;;;;24.40;12.15;;;;;;;18.09;100.00;98720.21;2232475;79;20991;-60
2022/08/06 02:44:14;;;;;;;24.70;11.08;;;;;;;17.98;100.00;98715.39;2236496;79;21116;-64
2022/08/06 02:47:15;;;;;;;23.52;11.35;;;;;;;17.95;100.00;98721.50;2224470;79;21036;-64
2022/08/06 02:50:17;;;;;;;25.40;12.20;;;;;;;17.95;100.00;98717.02;2231217;79;21045;-61
2022/08/06 02:53:19;;;;;;;24.15;11.65;;;;;;;17.93;100.00;98722.11;2230779;79;21036;-62
2022/08/06 02:56:20;;;;;;;23.00;11.08;;;;;;;17.85;100.00;98726.78;2230915;79;20992;-61
2022/08/06 02:59:21;;;;;;;28.67;11.55;;;;;;;17.79;100.00;98722.05;2224658;79;21093;-64
2022/08/06 03:02:23;;;;;;;24.92;11.75;;;;;;;17.76;100.00;98717.87;2224441;79;21007;-63
2022/08/06 03:05:24;;;;;;;28.32;12.28;;;;;;;17.75;100.00;98719.34;2237686;79;21008;-62
2022/08/06 03:08:26;;;;;;;24.30;11.53;;;;;;;17.76;100.00;98723.17;2222341;79;21329;-60
2022/08/06 03:11:27;;;;;;;29.23;12.13;;;;;;;17.75;100.00;98726.80;2223487;79;20988;-63
2022/08/06 03:14:29;;;;;;;25.48;12.00;;;;;;;17.70;100.00;98732.17;2242436;79;21035;-63
2022/08/06 03:17:30;;;;;;;26.42;12.55;;;;;;;17.59;100.00;98734.00;2254567;79;20962;-60
2022/08/06 03:20:32;;;;;;;32.30;14.73;;;;;;;17.57;100.00;98735.11;2230394;79;21582;-64
2022/08/06 03:23:33;;;;;;;31.07;13.32;;;;;;;17.41;100.00;98760.86;2228664;79;20972;-63
2022/08/06 03:26:34;;;;;;;25.70;12.40;;;;;;;16.96;100.00;98763.52;2234094;79;21067;-62
2022/08/06 03:29:36;;;;;;;27.52;13.22;;;;;;;16.77;100.00;98771.73;2223994;79;20987;-64
2022/08/06 03:32:37;;;;;;;30.17;13.18;;;;;;;16.84;100.00;98775.16;2233700;78;21118;-66
2022/08/06 03:35:39;;;;;;;27.80;14.90;;;;;;;16.90;100.00;98779.97;2233345;79;20983;-59
2022/08/06 03:38:40;;;;;;;27.22;14.13;;;;;;;16.95;100.00;98789.19;2228876;79;21019;-59
2022/08/06 03:41:42;;;;;;;29.85;15.13;;;;;;;17.01;100.00;98786.48;2235313;79;21507;-62
2022/08/06 03:44:43;;;;;;;27.70;14.25;;;;;;;17.13;100.00;98803.10;2239557;79;21039;-60
2022/08/06 03:47:45;;;;;;;27.48;13.45;;;;;;;17.08;100.00;98825.19;2232579;79;20965;-59
2022/08/06 03:50:46;;;;;;;30.48;15.20;;;;;;;16.94;100.00;98861.68;2235899;79;21798;-60
2022/08/06 03:53:48;;;;;;;30.40;15.58;;;;;;;17.10;100.00;98850.58;2233409;79;21091;-58
2022/08/06 03:56:49;;;;;;;27.62;14.68;;;;;;;17.34;100.00;98829.52;2238783;79;21077;-59
2022/08/06 03:59:51;;;;;;;28.00;14.10;;;;;;;17.61;100.00;98842.13;2234144;79;21039;-62
2022/08/06 04:02:52;;;;;;;26.93;13.78;;;;;;;17.79;100.00;98878.06;2238957;79;21072;-58
2022/08/06 04:05:54;;;;;;;27.58;13.58;;;;;;;17.95;100.00;98872.23;2235311;79;21075;-58
2022/08/06 04:08:56;;;;;;;26.27;12.53;;;;;;;18.14;100.00;98870.06;2239139;79;21072;-58
2022/08/06 04:11:57;;;;;;;29.67;14.03;;;;;;;18.37;100.00;98874.24;2234791;79;21532;-58
2022/08/06 04:14:58;;;;;;;26.48;13.62;;;;;;;18.60;100.00;98883.55;2237214;79;21000;-58
2022/08/06 04:18:00;;;;;;;25.48;12.98;;;;;;;18.76;100.00;98894.06;2236153;79;21428;-58
2022/08/06 04:21:01;;;;;;;24.47;12.95;;;;;;;18.91;100.00;98896.65;2237965;79;21073;-58
2022/08/06 04:24:03;;;;;;;26.12;12.78;;;;;;;19.08;100.00;98900.36;2235113;79;21028;-58
2022/08/06 04:27:04;;;;;;;23.40;12.73;;;;;;;19.30;100.00;98900.46;2238096;79;21104;-59
2022/08/06 04:30:05;;;;;;;27.48;13.38;;;;;;;19.51;100.00;98910.00;2234264;79;21076;-58
2022/08/06 04:33:07;;;;;;;25.72;11.88;;;;;;;19.68;100.00;98909.69;2239339;79;21677;-58
2022/08/06 04:36:08;;;;;;;26.93;12.60;;;;;;;19.80;100.00;98914.37;2234237;79;21025;-58
2022/08/06 04:39:10;;;;;;;24.85;12.03;;;;;;;19.87;100.00;98917.59;2239949;79;21047;-58
2022/08/06 04:42:11;;;;;;;21.45;11.38;;;;;;;20.00;100.00;98913.73;2235128;79;21019;-58
2022/08/06 04:45:12;;;;;;;22.82;11.53;;;;;;;20.12;100.00;98919.66;2238292;79;21033;-59
2022/08/06 04:48:14;;;;;;;25.88;12.18;;;;;;;20.16;100.00;98919.19;2234341;79;21531;-58
2022/08/06 04:51:15;;;;;;;23.35;10.75;;;;;;;20.23;100.00;98934.07;2238964;79;20989;-58
2022/08/06 04:54:17;;;;;;;26.00;11.88;;;;;;;20.28;100.00;98933.10;2237849;79;21499;-59
2022/08/06 04:57:18;;;;;;;23.57;10.98;;;;;;;20.35;100.00;98943.98;2240142;79;21100;-59
2022/08/06 05:00:20;;;;;;;22.52;10.98;;;;;;;20.38;100.00;98953.83;2235583;79;21033;-58
2022/08/06 05:03:22;;;;;;;;;;;;;;;20.44;100.00;98949.71;2236915;79;21000;-58
2022/08/06 05:06:23;;;;;;;25.35;11.68;;;;;;;20.55;100.00;98952.14;2239937;79;20389;-59
2022/08/06 05:09:25;;;;;;;23.02;10.65;;;;;;;20.65;100.00;98956.05;2227059;79;20987;-59
2022/08/06 05:12:26;;;;;;;21.75;10.15;;;;;;;20.77;100.00;98965.98;2221467;79;20965;-59
2022/08/06 05:15:29;;;;;;;23.40;11.12;;;;;;;20.89;100.00;98963.92;2228389;79;21028;-58
2022/08/06 05:18:30;;;;;;;24.52;10.90;;;;;;;20.91;100.00;98966.75;2241710;79;21524;-59
2022/08/06 05:21:31;;;;;;;25.12;11.38;;;;;;;20.92;100.00;98976.94;2231285;79;21020;-58
2022/08/06 05:24:33;;;;;;;22.73;10.80;;;;;;;20.93;100.00;98982.59;2230042;79;21004;-58
2022/08/06 05:27:34;;;;;;;20.45;9.58;;;;;;;21.09;100.00;98976.55;2217595;79;20987;-58
2022/08/06 05:30:36;;;;;;;21.30;10.08;;;;;;;21.17;100.00;98969.08;2231257;79;21043;-59
2022/08/06 05:33:37;;;;;;;21.97;9.93;;;;;;;21.20;100.00;98972.77;2232668;79;21524;-60
2022/08/06 05:36:39;;;;;;;24.30;10.65;;;;;;;21.23;100.00;98979.11;2217248;80;21023;-58
2022/08/06 05:39:40;;;;;;;20.45;9.83;;;;;;;;;;2261453;78;21522;-59
2022/08/06 05:42:41;;;;;;;22.62;9.75;;;;;;;21.35;100.00;98984.52;2230571;79;20992;-58
2022/08/06 05:45:43;;;;;;;20.45;9.68;;;;;;;21.31;100.00;98985.00;2224084;79;21487;-59
2022/08/06 05:48:44;;;;;;;22.40;10.25;;;;;;;21.34;100.00;98999.36;2222141;79;21031;-59
2022/08/06 05:51:46;;;;;;;23.73;9.78;;;;;;;21.41;100.00;99003.88;2228087;79;21436;-58
2022/08/06 05:54:47;;;;;;;20.00;9.08;;;;;;;;;;2217451;79;20987;-59
2022/08/06 05:57:49;;;;;;;21.95;8.60;;;;;;;21.42;100.00;99018.91;2232617;79;20997;-58
2022/08/06 06:00:51;;;;;;;19.62;8.68;;;;;;;21.44;100.00;99027.58;2229404;79;20996;-59
2022/08/06 06:03:53;;;;;;;;;;;;;;;21.44;100.00;99039.58;2239698;79;21041;-63
2022/08/06 06:06:55;;;;;;;20.60;8.13;;;;;;;21.37;100.00;99058.55;2234327;79;20400;-60
2022/08/06 06:09:57;;;;;;;21.95;8.10;;;;;;;21.37;100.00;99037.20;2233192;79;21012;-60
2022/08/06 06:12:58;;;;;;;20.17;8.33;;;;;;;21.45;100.00;99061.78;2229366;79;20993;-58
2022/08/06 06:16:00;;;;;;;17.90;7.58;;;;;;;21.54;100.00;99053.36;2236946;79;21047;-61
2022/08/06 06:19:02;;;;;;;18.92;7.72;;;;;;;21.56;100.00;99044.68;2228033;79;21095;-58
2022/08/06 06:22:03;;;;;;;19.70;7.35;;;;;;;21.58;100.00;99058.72;2228392;79;21044;-58
2022/08/06 06:25:05;;;;;;;17.73;7.42;;;;;;;21.51;100.00;99063.84;2241408;79;21020;-66
2022/08/06 06:28:06;;;;;;;20.50;7.78;;;;;;;21.44;100.00;99070.27;2241961;79;21087;-63
2022/08/06 06:31:08;;;;;;;18.23;7.05;;;;;;;21.49;100.00;99089.80;2235386;79;20996;-64
2022/08/06 06:34:09;;;;;;;22.02;7.50;;;;;;;21.51;100.00;99083.86;2243896;79;21627;-64
2022/08/06 06:37:11;;;;;;;19.62;6.70;;;;;;;21.40;100.00;99085.42;2228135;79;21147;-63
2022/08/06 06:40:12;;;;;;;18.40;7.00;;;;;;;21.40;100.00;99090.75;2242419;79;21041;-67
2022/08/06 06:43:14;;;;;;;20.40;7.33;;;;;;;21.40;100.00;99098.25;2244878;79;21142;-59
2022/08/06 06:46:16;;;;;;;20.85;7.40;;;;;;;21.44;100.00;99102.28;2240867;79;21112;-60
2022/08/06 06:49:17;;;;;;;21.05;7.17;;;;;;;21.42;100.00;99094.09;2236465;79;21057;-64
2022/08/06 06:52:19;;;;;;;22.20;7.90;;;;;;;21.54;100.00;99100.05;2230389;79;21004;-59
2022/08/06 06:55:20;;;;;;;20.00;7.10;;;;;;;21.57;100.00;99115.75;2225747;79;21363;-58
2022/08/06 06:58:22;;;;;;;18.32;6.85;;;;;;;21.61;100.00;99115.27;2224073;79;21071;-62
2022/08/06 07:01:23;;;;;;;18.95;6.92;;;;;;;21.62;100.00;99121.44;2239391;79;21564;-60
2022/08/06 07:04:25;;;;;;;19.25;7.35;;;;;;;21.62;100.00;99126.77;2230365;79;21047;-65
2022/08/06 07:07:26;;;;;;;17.10;6.40;;;;;;;21.69;100.00;99139.00;2235196;79;20957;-61
2022/08/06 07:10:28;;;;;;;19.48;6.62;;;;;;;21.63;100.00;99147.96;2239890;79;21111;-60
2022/08/06 07:13:29;;;;;;;18.15;6.40;;;;;;;21.71;100.00;99147.70;2239736;79;21041;-64
2022/08/06 07:16:30;;;;;;;17.07;6.05;;;;;;;21.75;100.00;99147.70;2242167;79;21555;-60
2022/08/06 07:19:32;;;;;;;14.75;5.87;;;;;;;21.80;100.00;99151.58;2234857;79;20984;-60
2022/08/06 07:22:34;;;;;;;17.00;5.83;;;;;;;21.88;100.00;99154.81;2233415;79;21175;-63
2022/08/06 07:25:35;;;;;;;17.23;6.20;;;;;;;21.93;100.00;99161.83;2232599;79;21072;-67
2022/08/06 07:28:36;;;;;;;16.90;5.80;;;;;;;22.10;100.00;99161.42;2238502;79;21099;-66
2022/08/06 07:31:38;;;;;;;17.82;6.35;;;;;;;22.22;100.00;99173.16;2240035;79;21069;-67
2022/08/06 07:34:40;;;;;;;18.37;5.75;;;;;;;22.32;100.00;99179.21;2240419;79;21096;-67
2022/08/06 07:37:41;;;;;;;16.20;6.12;;;;;;;22.43;100.00;99190.98;2241806;79;21069;-67
2022/08/06 07:40:42;;;;;;;18.27;6.05;;;;;;;22.51;100.00;99188.00;2236299;79;21550;-66
2022/08/06 07:43:44;;;;;;;15.25;5.05;;;;;;;22.60;100.00;99198.56;2237837;79;21049;-67
2022/08/06 07:46:49;;;;;;;;;;;;;;;22.64;100.00;99203.93;2245075;79;21555;-67
2022/08/06 07:49:49;;;;;;;14.93;4.95;;;;;;;22.57;100.00;99198.89;2200658;79;20110;-67
2022/08/06 07:52:50;;;;;;;13.90;5.17;;;;;;;22.50;100.00;99225.93;2244034;79;21061;-68
2022/08/06 07:55:52;;;;;;;12.33;5.28;;;;;;;22.47;100.00;99212.89;2238198;79;21523;-68
2022/08/06 07:58:53;;;;;;;14.63;4.92;;;;;;;22.58;100.00;99209.91;2238850;79;21071;-68
2022/08/06 08:01:55;;;;;;;15.23;4.90;;;;;;;22.64;100.00;99217.30;2238116;79;21100;-67
2022/08/06 08:07:59;;;;;;;14.40;4.58;;;;;;;22.87;100.00;99215.84;2215430;79;21009;-68
2022/08/06 08:11:01;;;;;;;13.55;4.58;;;;;;;22.73;100.00;99230.67;2242236;79;21187;-68
2022/08/06 08:14:03;;;;;;;19.62;4.92;;;;;;;22.50;100.00;99239.30;2238893;79;21622;-61
2022/08/06 08:17:04;;;;;;;11.25;4.20;;;;;;;22.41;100.00;99246.44;2238563;79;20958;-60
2022/08/06 08:20:06;;;;;;;15.32;4.33;;;;;;;22.33;100.00;99242.38;2225245;79;21566;-64
2022/08/06 08:23:07;;;;;;;12.63;4.30;;;;;;;22.35;100.00;99255.58;2225698;79;21091;-59
2022/08/06 08:26:09;;;;;;;11.15;4.12;;;;;;;22.49;100.00;99252.31;2232749;79;21538;-60
2022/08/06 08:29:11;;;;;;;12.98;4.00;;;;;;;22.58;100.00;99266.03;2237994;79;21096;-59
2022/08/06 08:32:13;;;;;;;11.50;3.87;;;;;;;22.66;100.00;99261.23;2230645;79;21572;-63
2022/08/06 08:35:15;;;;;;;10.25;3.80;;;;;;;22.64;100.00;99274.77;2237236;79;21016;-65
2022/08/06 08:38:17;;;;;;;9.28;3.90;;;;;;;22.57;100.00;99282.23;2232290;79;21554;-61
2022/08/06 08:41:18;;;;;;;11.00;3.80;;;;;;;22.57;100.00;99275.55;2229676;79;20987;-62
2022/08/06 08:44:20;;;;;;;11.55;3.50;;;;;;;22.67;100.00;99288.32;2217460;79;21072;-65
2022/08/06 08:47:21;;;;;;;10.93;3.80;;;;;;;22.86;100.00;99271.66;2235668;79;21072;-65
2022/08/06 08:50:23;;;;;;;10.58;3.70;;;;;;;23.16;100.00;99272.45;2223333;79;20957;-66
2022/08/06 08:53:25;;;;;;;12.35;3.70;;;;;;;23.63;100.00;99268.83;2226513;79;21044;-67
2022/08/06 08:56:26;;;;;;;12.10;3.83;;;;;;;23.85;100.00;99284.22;2229345;79;21008;-67
2022/08/06 08:59:28;;;;;;;10.35;3.67;;;;;;;23.41;100.00;99289.89;2231554;79;21532;-66
2022/08/06 09:02:29;;;;;;;10.32;3.60;;;;;;;23.08;100.00;99292.46;2240559;79;20984;-67
2022/08/06 09:05:31;;;;;;;8.95;3.70;;;;;;;22.86;100.00;99304.60;2237393;79;20985;-68
2022/08/06 09:08:32;;;;;;;11.33;3.58;;;;;;;22.53;100.00;99316.48;2240224;79;21024;-68
2022/08/06 09:11:34;;;;;;;9.83;3.40;;;;;;;22.10;100.00;99319.52;2236893;79;21004;-68
2022/08/06 09:14:35;;;;;;;9.68;3.58;;;;;;;21.77;100.00;99315.25;2236321;79;21067;-61
2022/08/06 09:17:37;;;;;;;9.45;3.30;;;;;;;21.53;100.00;99319.86;2238291;79;21155;-67
2022/08/06 09:20:39;;;;;;;6.97;2.90;;;;;;;21.34;100.00;99334.16;2237478;79;21736;-67
2022/08/06 09:23:40;;;;;;;6.83;3.15;;;;;;;21.10;100.00;99336.88;2236503;79;21075;-67
2022/08/06 09:26:42;;;;;;;5.70;2.90;;;;;;;20.88;100.00;99342.95;2237385;79;21634;-63
2022/08/06 09:29:43;;;;;;;8.55;2.95;;;;;;;20.78;100.00;99341.33;2238228;79;20969;-61
2022/08/06 09:32:45;;;;;;;9.18;2.60;;;;;;;20.67;100.00;99355.66;2238656;79;21213;-67
2022/08/06 09:35:46;;;;;;;4.45;1.95;;;;;;;20.51;100.00;99358.91;2237486;79;21079;-62
2022/08/06 09:38:48;;;;;;;;;;;;;;;20.36;100.00;99358.53;2240294;79;21626;-65
2022/08/06 09:41:52;;;;;;;4.87;2.17;;;;;;;20.28;100.00;99355.23;2239482;79;20113;-67
2022/08/06 09:44:53;;;;;;;4.70;1.90;;;;;;;20.18;100.00;99352.58;2208358;79;21080;-68
2022/08/06 09:47:55;;;;;;;6.05;2.10;;;;;;;20.12;100.00;99352.33;2239609;79;21084;-69
2022/08/06 09:50:59;;;;;;;5.37;2.12;;;;;;;20.12;100.00;99343.84;2212665;79;20977;-67
2022/08/06 09:54:00;;;;;;;5.97;1.70;;;;;;;20.07;100.00;99339.45;2240663;79;21622;-68
2022/08/06 09:57:02;;;;;;;5.10;2.10;;;;;;;20.00;100.00;99341.00;2237674;79;20988;-69
2022/08/06 10:00:03;;;;;;;3.92;1.72;;;;;;;20.00;100.00;99341.83;2235271;79;21072;-66
2022/08/06 10:03:04;;;;;;;2.83;1.70;;;;;;;19.95;100.00;99344.06;2234144;79;21104;-69
2022/08/06 10:06:07;;;;;;;4.17;1.70;;;;;;;19.86;100.00;99356.40;2238934;79;21116;-66
2022/08/06 10:09:08;;;;;;;;;;;;;;;19.82;100.00;99354.99;2242373;79;21065;-69
2022/08/06 10:12:10;;;;;;;5.47;2.02;;;;;;;19.73;100.00;99341.17;2206620;80;20421;-69
2022/08/06 10:15:13;;;;;;;2.80;1.50;;;;;;;19.58;100.00;99347.88;2237103;79;20992;-68
2022/08/06 10:18:15;;;;;;;5.50;1.50;;;;;;;19.41;100.00;99356.05;2231335;79;21124;-69
2022/08/06 10:21:17;;;;;;;4.92;1.20;;;;;;;19.29;100.00;99378.77;2233944;79;21082;-62
2022/08/06 10:24:18;;;;;;;;;;;;;;;19.22;100.00;99370.98;2239133;79;20991;-67
2022/08/06 10:27:20;;;;;;;4.85;1.62;;;;;;;19.24;100.00;99374.36;2239362;79;20401;-63
2022/08/06 10:30:21;;;;;;;4.97;1.55;;;;;;;19.21;100.00;99365.33;2238527;79;21064;-65
2022/08/06 10:33:23;;;;;;;1.80;1.15;;;;;;;19.25;100.00;99382.70;2237647;79;21056;-68
2022/08/06 10:36:24;;;;;;;4.55;1.40;;;;;;;19.31;100.00;99394.58;2242370;79;21032;-65
2022/08/06 10:39:26;;;;;;;1.82;1.30;;;;;;;19.35;100.00;99396.86;2234420;79;21052;-67
2022/08/06 10:42:28;;;;;;;3.77;1.25;;;;;;;19.33;100.00;99405.45;2235728;79;20997;-68
2022/08/06 10:45:29;;;;;;;2.98;1.37;;;;;;;19.15;100.00;99411.05;2240803;79;21025;-67
2022/08/06 10:48:31;;;;;;;4.30;1.45;;;;;;;19.12;100.00;99421.95;2238673;79;21519;-66
2022/08/06 10:51:32;;;;;;;2.10;1.22;;;;;;;19.07;100.00;99421.53;2237473;79;21088;-62
2022/08/06 10:54:34;;;;;;;3.75;1.20;;;;;;;18.98;100.00;99434.64;2240520;79;21602;-62
2022/08/06 10:57:35;;;;;;;4.40;1.50;;;;;;;18.84;100.00;99427.81;2239268;79;21047;-67
2022/08/06 11:00:39;;;;;;;3.35;1.40;;;;;;;18.77;100.00;99423.17;2236119;79;21072;-65
2022/08/06 11:03:40;;;;;;;2.90;1.40;;;;;;;18.61;100.00;99423.14;2210430;79;21067;-67
2022/08/06 11:06:41;;;;;;;3.20;1.30;;;;;;;18.56;100.00;99428.02;2239473;79;21047;-62
2022/08/06 11:09:43;;;;;;;3.42;1.00;;;;;;;18.47;100.00;99432.77;2238894;79;20996;-67
2022/08/06 11:12:45;;;;;;;4.20;1.40;;;;;;;18.33;100.00;99438.77;2236097;79;21151;-67
2022/08/06 11:15:46;;;;;;;;;;;;;;;18.43;100.00;99435.33;2242487;79;21128;-67
2022/08/06 11:18:48;;;;;;;2.60;1.27;;;;;;;18.44;100.00;99429.05;2237379;79;20094;-65
2022/08/06 11:21:49;;;;;;;3.22;1.07;;;;;;;18.40;100.00;99443.55;2236533;79;21076;-68
2022/08/06 11:24:52;;;;;;;7.00;1.50;;;;;;;18.38;100.00;99438.38;2237468;79;21543;-66
2022/08/06 11:27:56;;;;;;;2.77;1.27;;;;;;;18.25;100.00;99438.55;2240077;79;21097;-67
2022/08/06 11:30:57;;;;;;;4.05;1.40;;;;;;;18.18;100.00;99446.17;2216443;79;21000;-67
2022/08/06 11:33:59;;;;;;;1.62;1.27;;;;;;;18.09;100.00;99467.35;2241606;79;21092;-68
2022/08/06 11:37:00;;;;;;;3.47;1.20;;;;;;;18.04;100.00;99466.87;2237708;79;21481;-69
2022/08/06 11:40:02;;;;;;;1.87;1.27;;;;;;;17.97;100.00;99471.37;2237972;79;21084;-68
2022/08/06 11:43:03;;;;;;;3.90;0.95;;;;;;;17.91;100.00;99466.54;2238316;79;21546;-67
2022/08/06 11:46:04;;;;;;;1.72;1.10;;;;;;;17.87;100.00;99473.52;2238990;79;21096;-68
2022/08/06 11:49:06;;;;;;;2.17;1.00;;;;;;;17.86;100.00;99466.52;2239275;79;20997;-68
2022/08/06 11:52:08;;;;;;;2.85;1.27;;;;;;;17.85;100.00;99469.67;2238477;79;21005;-68
2022/08/06 11:55:09;;;;;;;4.00;1.20;;;;;;;17.89;100.00;99479.56;2240518;79;21000;-67
2022/08/06 11:58:12;;;;;;;2.37;1.10;;;;;;;17.93;100.00;99470.39;2239179;79;21001;-67
2022/08/06 12:01:13;;;;;;;2.83;1.37;;;;;;;17.93;100.00;99465.95;2241052;79;21026;-67
2022/08/06 12:04:15;;;;;;;1.82;1.02;;;;;;;17.99;100.00;99468.59;2239234;79;21092;-66
2022/08/06 12:07:16;;;;;;;3.70;1.12;;;;;;;17.99;100.00;99480.03;2239423;79;21626;-67
2022/08/06 12:10:18;;;;;;;2.08;1.15;;;;;;;18.05;100.00;99476.53;2240166;79;21003;-67
2022/08/06 12:13:19;;;;;;;1.92;1.30;;;;;;;18.04;100.00;99477.49;2237678;79;21049;-67
2022/08/06 12:16:23;;;;;;;4.03;1.32;;;;;;;18.18;100.00;99467.91;2214188;79;21551;-67
2022/08/06 12:19:24;;;;;;;4.42;1.52;;;;;;;18.32;100.00;99466.78;2244117;79;21032;-65
2022/08/06 12:22:26;;;;;;;4.95;1.60;;;;;;;18.46;100.00;99460.29;2234390;79;20985;-67
2022/08/06 12:25:28;;;;;;;3.17;1.35;;;;;;;18.79;100.00;99451.77;2233004;79;21581;-65
2022/08/06 12:28:29;;;;;;;5.67;1.70;;;;;;;18.95;100.00;99469.47;2240202;79;21016;-62
2022/08/06 12:31:31;;;;;;;5.33;1.50;;;;;;;18.91;100.00;99482.66;2237063;79;21073;-65
2022/08/06 12:34:32;;;;;;;8.75;1.42;;;;;;;18.78;100.00;99478.01;2239415;79;21584;-67
2022/08/06 12:37:34;;;;;;;2.87;1.52;;;;;;;18.76;100.00;99478.61;2236882;79;21085;-67
2022/08/06 12:40:37;;;;;;;10.15;1.85;;;;;;;18.61;100.00;99477.61;2237373;79;21591;-65
2022/08/06 12:43:39;;;;;;;4.05;1.45;;;;;;;18.50;100.00;99489.61;2237845;79;21065;-68
2022/08/06 12:46:40;;;;;;;3.35;1.70;;;;;;;18.50;100.00;99494.92;2236733;79;21109;-68
2022/08/06 12:49:42;;;;;;;6.00;2.00;;;;;;;18.42;100.00;99498.70;2241350;79;21115;-66
2022/08/06 12:52:43;;;;;;;4.85;1.65;;;;;;;18.17;100.00;99496.74;2238715;79;21653;-66
2022/08/06 12:55:45;;;;;;;9.48;2.15;;;;;;;17.99;100.00;99509.23;2241495;79;21100;-69
2022/08/06 12:58:46;;;;;;;7.25;1.80;;;;;;;17.88;100.00;99505.73;2239939;79;21000;-68
2022/08/06 13:01:48;;;;;;;7.80;2.15;;;;;;;17.79;100.00;99510.80;2236666;79;21084;-68
2022/08/06 13:04:49;;;;;;;6.45;2.10;;;;;;;17.81;100.00;99517.31;2236752;79;21017;-68
2022/08/06 13:07:52;;;;;;;4.80;2.02;;;;;;;17.80;100.00;99507.66;2238743;79;21045;-65
2022/08/06 13:10:53;;;;;;;4.25;1.98;;;;;;;17.77;100.00;99510.09;2238658;79;21560;-67
2022/08/06 13:13:55;;;;;;;5.53;2.30;;;;;;;17.84;100.00;99509.10;2237126;79;21056;-65
2022/08/06 13:16:56;;;;;;;5.05;2.40;;;;;;;17.79;100.00;99513.45;2236401;79;21092;-66
2022/08/06 13:19:59;;;;;;;7.97;2.90;;;;;;;17.71;100.00;99512.39;2234646;79;21072;-65
2022/08/06 13:23:00;;;;;;;7.42;2.62;;;;;;;17.76;100.00;99515.03;2237944;79;21053;-65
2022/08/06 13:26:02;;;;;;;5.87;2.47;;;;;;;17.76;100.00;99515.03;2238596;79;21491;-65
2022/08/06 13:29:03;;;;;;;8.18;2.52;;;;;;;17.76;100.00;99518.19;2239431;79;21000;-60
2022/08/06 13:32:05;;;;;;;7.47;2.70;;;;;;;17.80;100.00;99517.80;2240267;79;21548;-67
2022/08/06 13:35:10;;;;;;;6.15;2.58;;;;;;;17.73;100.00;99517.94;2240042;79;21031;-68
2022/08/06 13:38:09;;;;;;;7.15;2.52;;;;;;;17.58;100.00;99527.11;2211229;79;21006;-65
2022/08/06 13:41:11;;;;;;;7.25;2.85;;;;;;;17.47;100.00;99530.13;2239651;79;21124;-67
2022/08/06 13:44:13;;;;;;;9.38;3.10;;;;;;;17.43;100.00;99545.08;2236399;79;21074;-65
2022/08/06 13:50:18;;;;;;;7.65;2.47;;;;;;;17.49;100.00;99546.75;2212762;79;20991;-68
2022/08/06 13:53:19;;;;;;;10.32;3.00;;;;;;;17.52;100.00;99543.52;2227660;79;21002;-63
2022/08/06 13:56:21;;;;;;;8.80;2.97;;;;;;;17.57;100.00;99547.95;2235928;79;21071;-65
2022/08/06 13:59:22;;;;;;;10.98;2.98;;;;;;;17.56;100.00;99548.45;2213950;79;21370;-67
2022/08/06 14:02:24;;;;;;;12.95;3.17;;;;;;;17.60;100.00;99549.90;2231030;79;21016;-66